Time;durP1;ratioP1;P1;durP2;ratioP2;P2;SDS_P1;SDS_P2;PMS_P1;PMS_P2;Temp;Humidity;BMP_temperature;BMP_pressure;BME280_temperature;BME280_humidity;BME280_pressure;Samples;Min_cycle;Max_cycle;Signal;HPM_P1;HPM_P2
2021/07/19 00:02:22;;;;;;;15.82;8.15;;;;;;;14.53;87.84;102497.41;5012211;28;20049;-71
2021/07/19 00:04:47;;;;;;;11.73;7.35;;;;;;;14.52;87.81;102498.38;5010223;28;20433;-71
2021/07/19 00:07:13;;;;;;;14.48;8.27;;;;;;;14.49;87.29;102493.25;5012310;28;20087;-71
2021/07/19 00:09:44;;;;;;;13.90;7.43;;;;;;;14.48;87.71;102496.94;5010344;28;20478;-72
2021/07/19 00:12:13;;;;;;;13.20;7.00;;;;;;;14.47;87.40;102503.25;5012243;28;20095;-71
2021/07/19 00:14:39;;;;;;;13.45;7.53;;;;;;;14.43;87.70;102497.28;5009926;28;20273;-72
2021/07/19 00:17:04;;;;;;;10.23;7.18;;;;;;;14.41;87.59;102491.22;5012138;28;20057;-71
2021/07/19 00:19:30;;;;;;;16.00;6.88;;;;;;;14.38;87.56;102499.50;5012019;28;20117;-71
2021/07/19 00:21:55;;;;;;;16.70;8.35;;;;;;;14.36;87.90;102500.59;5011690;28;20034;-71
2021/07/19 00:24:21;;;;;;;11.45;6.85;;;;;;;14.33;87.95;102490.13;4994386;28;20128;-71
2021/07/19 00:26:46;;;;;;;13.93;6.82;;;;;;;14.28;87.45;102495.84;5012338;28;20061;-71
2021/07/19 00:29:12;;;;;;;10.55;7.05;;;;;;;14.27;87.59;102502.16;5015607;28;20030;-71
2021/07/19 00:31:37;;;;;;;13.95;7.30;;;;;;;14.27;87.90;102502.16;5014976;28;20062;-72
2021/07/19 00:34:04;;;;;;;11.90;6.57;;;;;;;14.22;87.85;102507.06;5015348;28;20034;-71
2021/07/19 00:36:30;;;;;;;12.82;6.93;;;;;;;14.19;87.82;102500.13;5015632;28;20099;-71
2021/07/19 00:38:55;;;;;;;10.10;6.88;;;;;;;14.16;87.76;102499.53;5013878;28;20746;-72
2021/07/19 00:41:21;;;;;;;7.95;6.38;;;;;;;14.12;87.52;102493.53;5015887;28;20088;-71
2021/07/19 00:43:47;;;;;;;10.23;6.75;;;;;;;14.07;87.79;102507.28;5014684;28;20137;-72
2021/07/19 00:46:13;;;;;;;9.18;6.47;;;;;;;14.05;87.69;102503.06;5014397;28;20525;-71
2021/07/19 00:48:38;;;;;;;10.00;6.60;;;;;;;14.00;88.12;102498.06;5014560;28;20084;-73
2021/07/19 00:51:04;;;;;;;10.02;6.72;;;;;;;13.98;88.35;102497.31;5015132;28;20049;-72
2021/07/19 00:53:30;;;;;;;8.63;6.45;;;;;;;13.95;88.13;102502.06;5015415;28;20038;-71
2021/07/19 00:55:58;;;;;;;11.27;6.82;;;;;;;13.90;87.58;102494.41;5014567;28;20528;-71
2021/07/19 00:58:28;;;;;;;16.42;7.22;;;;;;;13.86;87.58;102506.31;5014924;28;20481;-71
2021/07/19 01:00:55;;;;;;;9.50;7.03;;;;;;;13.85;88.33;102504.59;5014429;28;20133;-71
2021/07/19 01:03:23;;;;;;;13.50;7.22;;;;;;;13.83;88.12;102498.53;5014870;28;20030;-71
2021/07/19 01:05:49;;;;;;;11.35;6.40;;;;;;;13.81;88.07;102505.81;5014527;28;20048;-71
2021/07/19 01:08:17;;;;;;;9.82;7.40;;;;;;;13.79;88.02;102502.41;5014969;28;20049;-71
2021/07/19 01:10:43;;;;;;;10.88;6.35;;;;;;;13.74;88.37;102497.44;5012958;28;20037;-71
2021/07/19 01:13:09;;;;;;;9.45;6.82;;;;;;;13.70;88.64;102503.97;5014664;28;20030;-71
2021/07/19 01:15:37;;;;;;;12.20;7.10;;;;;;;13.69;88.46;102494.25;5014777;28;20034;-71
2021/07/19 01:18:04;;;;;;;11.90;6.80;;;;;;;13.67;88.29;102501.53;5013998;28;20157;-72
2021/07/19 01:20:39;;;;;;;12.20;7.05;;;;;;;13.65;88.73;102501.66;5014888;28;20029;-71
2021/07/19 01:23:15;;;;;;;9.85;6.15;;;;;;;13.63;88.26;102502.75;5014075;28;20041;-71
2021/07/19 01:26:09;;;;;;;11.40;6.18;;;;;;;13.57;87.89;102510.28;5014670;28;20034;-71
2021/07/19 01:28:37;;;;;;;11.15;6.38;;;;;;;13.55;88.46;102509.56;5014743;28;20042;-72
2021/07/19 01:31:31;;;;;;;11.10;6.03;;;;;;;13.53;88.62;102507.97;5013791;28;20034;-71
2021/07/19 01:34:01;;;;;;;11.50;6.70;;;;;;;13.51;88.88;102500.06;5013799;28;20036;-71
2021/07/19 01:36:36;;;;;;;12.15;7.43;;;;;;;13.53;89.18;102502.63;5012984;28;20080;-71
2021/07/19 01:39:05;;;;;;;9.25;6.82;;;;;;;13.53;89.24;102486.56;5012971;28;20160;-72
2021/07/19 01:41:32;;;;;;;11.85;6.20;;;;;;;13.50;88.63;102482.31;5014483;28;20034;-71
2021/07/19 01:43:59;;;;;;;10.32;6.10;;;;;;;13.49;88.52;102496.63;5013745;28;20466;-71
2021/07/19 01:46:27;;;;;;;10.98;6.30;;;;;;;13.45;88.60;102492.53;5014138;28;20033;-71
2021/07/19 01:48:55;;;;;;;13.13;7.40;;;;;;;13.45;89.14;102489.84;5013600;28;20042;-71
2021/07/19 01:51:20;;;;;;;14.30;7.20;;;;;;;13.45;89.22;102494.31;5013925;28;20034;-71
2021/07/19 01:53:47;;;;;;;13.73;7.35;;;;;;;13.44;89.11;102493.47;5013620;28;20435;-72
2021/07/19 01:56:14;;;;;;;10.07;5.68;;;;;;;13.41;88.72;102483.03;5012582;28;20026;-71
2021/07/19 01:58:39;;;;;;;11.85;6.63;;;;;;;13.38;88.69;102484.09;5013899;28;20088;-71
2021/07/19 02:01:06;;;;;;;12.75;6.72;;;;;;;13.36;89.00;102480.69;5013453;28;20260;-71
2021/07/19 02:03:32;;;;;;;11.98;6.70;;;;;;;13.34;89.04;102485.28;5012538;28;20117;-71
2021/07/19 02:05:59;;;;;;;12.20;5.95;;;;;;;13.30;88.80;102481.13;5011954;28;20470;-71
2021/07/19 02:08:26;;;;;;;13.27;6.65;;;;;;;13.27;88.45;102481.38;5013978;28;20050;-71
2021/07/19 02:10:53;;;;;;;9.82;6.60;;;;;;;13.26;88.57;102476.16;5013070;28;20065;-71
2021/07/19 02:13:21;;;;;;;9.68;6.60;;;;;;;13.24;88.64;102476.22;5013943;28;20026;-71
2021/07/19 02:15:49;;;;;;;9.27;6.70;;;;;;;13.22;88.98;102470.16;5013053;28;20051;-72
2021/07/19 02:18:17;;;;;;;13.20;6.88;;;;;;;13.16;89.04;102476.81;5012261;28;20100;-72
2021/07/19 02:20:44;;;;;;;7.47;5.93;;;;;;;13.14;89.07;102476.09;5013500;28;20030;-71
2021/07/19 02:23:10;;;;;;;9.90;6.43;;;;;;;13.10;88.60;102484.47;5012908;28;20113;-72
2021/07/19 02:25:38;;;;;;;8.70;6.20;;;;;;;13.05;88.41;102495.50;5013490;28;20034;-71
2021/07/19 02:28:04;;;;;;;15.73;7.60;;;;;;;13.03;89.24;102495.63;5012895;28;20022;-71
2021/07/19 02:30:30;;;;;;;14.93;7.55;;;;;;;13.00;89.06;102495.84;5013448;28;20036;-71
2021/07/19 02:32:58;;;;;;;15.98;8.18;;;;;;;13.03;89.66;102500.97;5012857;28;20038;-71
2021/07/19 02:35:25;;;;;;;14.07;7.78;;;;;;;13.03;89.82;102490.28;5013148;28;20030;-71
2021/07/19 02:37:53;;;;;;;16.10;7.15;;;;;;;13.05;89.56;102487.50;5012766;28;20034;-72
2021/07/19 02:40:21;;;;;;;11.18;6.95;;;;;;;13.00;89.19;102484.28;5013416;28;20028;-71
2021/07/19 02:42:54;;;;;;;11.23;7.03;;;;;;;12.96;89.02;102477.50;5013168;28;20041;-71
2021/07/19 02:45:20;;;;;;;19.13;8.02;;;;;;;12.94;89.06;102482.09;5013171;28;20102;-70
2021/07/19 02:47:48;;;;;;;15.20;7.80;;;;;;;12.92;89.61;102476.00;5012962;28;20041;-70
2021/07/19 02:50:16;;;;;;;13.32;8.00;;;;;;;12.91;89.74;102490.31;5011691;28;20474;-72
2021/07/19 02:52:43;;;;;;;17.25;8.68;;;;;;;12.91;89.83;102501.84;5012939;28;20033;-72
2021/07/19 02:55:11;;;;;;;15.07;7.78;;;;;;;12.91;90.00;102495.66;5012313;28;20040;-71
2021/07/19 02:57:37;;;;;;;10.95;7.00;;;;;;;12.85;89.53;102495.16;5012820;28;20026;-71
2021/07/19 03:00:14;;;;;;;11.63;6.55;;;;;;;12.83;89.17;102491.75;5010803;28;20493;-72
2021/07/19 03:02:43;;;;;;;11.90;7.25;;;;;;;12.79;89.24;102489.41;5013262;28;20042;-72
2021/07/19 03:05:11;;;;;;;11.40;7.53;;;;;;;12.78;89.55;102496.59;5012166;28;20064;-72
2021/07/19 03:07:38;;;;;;;19.42;8.52;;;;;;;12.76;89.91;102486.97;5012737;28;20038;-71
2021/07/19 03:10:08;;;;;;;11.52;7.38;;;;;;;12.74;89.79;102495.09;5012050;28;20030;-70
2021/07/19 03:12:37;;;;;;;14.45;7.55;;;;;;;12.73;90.14;102503.22;5012455;28;20129;-71
2021/07/19 03:15:05;;;;;;;16.52;7.90;;;;;;;12.72;89.93;102509.53;5010739;28;20145;-71
2021/07/19 03:17:31;;;;;;;14.68;8.93;;;;;;;12.73;90.28;102501.41;5012383;28;20076;-71
2021/07/19 03:19:58;;;;;;;14.57;8.13;;;;;;;12.70;90.00;102502.50;5011827;28;20052;-72
2021/07/19 03:22:24;;;;;;;18.70;9.57;;;;;;;12.75;90.38;102509.28;5012372;28;20066;-72
2021/07/19 03:24:52;;;;;;;25.10;9.63;;;;;;;12.79;90.65;102508.13;5012399;28;20065;-71
2021/07/19 03:27:20;;;;;;;18.90;9.00;;;;;;;12.86;90.74;102504.88;5011684;28;20033;-72
2021/07/19 03:29:45;;;;;;;19.55;9.20;;;;;;;12.93;90.75;102504.41;5012427;28;20040;-71
2021/07/19 03:32:11;;;;;;;14.50;9.07;;;;;;;12.97;90.74;102503.22;5011812;28;20125;-72
2021/07/19 03:34:40;;;;;;;14.90;8.00;;;;;;;12.97;90.49;102501.44;5012208;28;20064;-71
2021/07/19 03:37:06;;;;;;;14.43;8.43;;;;;;;12.98;90.31;102500.44;5011625;28;20034;-72
2021/07/19 03:39:32;;;;;;;20.70;8.82;;;;;;;12.98;90.19;102499.59;5012102;28;20049;-71
2021/07/19 03:41:58;;;;;;;15.98;9.18;;;;;;;12.97;90.39;102495.22;5011785;28;20033;-73
2021/07/19 03:44:24;;;;;;;15.25;8.90;;;;;;;12.93;90.02;102504.41;5012258;28;20133;-71
2021/07/19 03:46:50;;;;;;;18.27;7.97;;;;;;;12.94;90.38;102506.13;5012543;28;20111;-71
2021/07/19 03:49:18;;;;;;;12.98;8.77;;;;;;;12.94;90.48;102512.31;5011436;28;20542;-71
2021/07/19 03:51:47;;;;;;;18.52;9.07;;;;;;;12.99;90.35;102507.50;5012147;28;20463;-71
2021/07/19 03:54:12;;;;;;;19.27;9.05;;;;;;;13.05;90.82;102498.19;5011813;28;20359;-72
2021/07/19 03:56:39;;;;;;;13.80;8.27;;;;;;;13.13;90.91;102500.25;5011811;28;20032;-71
2021/07/19 03:59:06;;;;;;;16.05;8.57;;;;;;;13.19;90.63;102497.13;5011511;28;20034;-71
2021/07/19 04:01:35;;;;;;;15.75;8.43;;;;;;;13.26;90.46;102498.38;5012519;28;20148;-71
2021/07/19 04:04:06;;;;;;;13.30;7.85;;;;;;;13.34;90.52;102493.31;5015411;28;20082;-72
2021/07/19 04:06:32;;;;;;;15.10;8.07;;;;;;;13.40;90.16;102492.88;5015873;28;20038;-71
2021/07/19 04:08:58;;;;;;;12.63;8.15;;;;;;;13.47;90.07;102495.91;5016019;28;20041;-71
2021/07/19 04:11:24;;;;;;;12.60;7.25;;;;;;;13.53;89.90;102499.94;5015178;28;20474;-71
2021/07/19 04:13:50;;;;;;;11.63;6.95;;;;;;;13.57;89.48;102499.59;5015879;28;20050;-71
2021/07/19 04:16:21;;;;;;;12.65;7.82;;;;;;;13.63;89.61;102498.28;5015224;28;20087;-72
2021/07/19 04:18:48;;;;;;;16.03;8.37;;;;;;;13.67;89.26;102486.34;5015772;28;20030;-71
2021/07/19 04:21:14;;;;;;;14.45;7.95;;;;;;;13.74;89.23;102487.56;5014999;28;20034;-72
2021/07/19 04:23:40;;;;;;;16.45;8.00;;;;;;;13.81;89.04;102489.75;5015434;28;20516;-72
2021/07/19 04:26:06;;;;;;;11.80;7.80;;;;;;;13.87;89.04;102481.28;5015210;28;20034;-71
2021/07/19 04:28:33;;;;;;;15.52;8.38;;;;;;;13.95;89.15;102486.03;5015595;28;20037;-72
2021/07/19 04:31:01;;;;;;;15.88;7.78;;;;;;;14.01;88.90;102485.53;5014256;28;20390;-71
2021/07/19 04:33:26;;;;;;;15.65;8.00;;;;;;;14.07;88.45;102487.72;5014855;28;20096;-72
2021/07/19 04:35:51;;;;;;;23.63;8.57;;;;;;;14.14;88.32;102494.28;5014389;28;20099;-71
2021/07/19 04:38:19;;;;;;;14.27;8.15;;;;;;;14.19;87.87;102489.41;5014553;28;20535;-71
2021/07/19 04:40:46;;;;;;;16.30;8.70;;;;;;;14.22;88.19;102483.81;5015500;28;20081;-71
2021/07/19 04:43:12;;;;;;;15.15;8.88;;;;;;;14.26;88.21;102479.06;5014615;28;20038;-72
2021/07/19 04:45:38;;;;;;;17.38;8.43;;;;;;;14.27;88.14;102481.63;5015099;28;20047;-71
2021/07/19 04:48:03;;;;;;;12.68;8.85;;;;;;;14.32;88.15;102481.25;5014953;28;20030;-71
2021/07/19 04:50:29;;;;;;;17.60;8.60;;;;;;;14.37;87.08;102491.59;5014336;28;20082;-71
2021/07/19 04:52:54;;;;;;;16.95;8.50;;;;;;;14.40;87.24;102500.22;5014948;28;20069;-71
2021/07/19 04:55:21;;;;;;;20.80;8.77;;;;;;;14.42;87.09;102495.59;5014629;28;20112;-72
2021/07/19 04:57:50;;;;;;;12.75;8.77;;;;;;;14.45;87.23;102495.34;5013894;28;20385;-71
2021/07/19 05:00:16;;;;;;;16.15;9.27;;;;;;;14.52;87.61;102492.16;5014208;28;20052;-72
2021/07/19 05:02:43;;;;;;;17.02;9.10;;;;;;;14.58;86.91;102486.31;5014662;28;20058;-70
2021/07/19 05:05:14;;;;;;;15.68;8.50;;;;;;;14.65;86.59;102492.91;5014008;28;20045;-72
2021/07/19 05:07:43;;;;;;;13.77;8.13;;;;;;;14.77;86.40;102491.06;5015104;28;20065;-71
2021/07/19 05:10:09;;;;;;;14.13;7.70;;;;;;;14.88;85.61;102487.47;5014515;28;20299;-72
2021/07/19 05:12:35;;;;;;;17.25;8.15;;;;;;;15.02;85.45;102495.22;5014736;28;20249;-71
2021/07/19 05:15:01;;;;;;;16.40;8.40;;;;;;;15.16;85.06;102489.53;5013998;28;20034;-71
2021/07/19 05:17:27;;;;;;;15.23;7.43;;;;;;;15.31;84.17;102494.59;5013826;28;20129;-71
2021/07/19 05:19:53;;;;;;;14.57;7.57;;;;;;;15.48;83.48;102491.34;5014431;28;20371;-72
2021/07/19 05:22:19;;;;;;;9.80;6.38;;;;;;;15.62;82.37;102487.47;5013979;28;20030;-72
2021/07/19 05:24:44;;;;;;;14.82;6.80;;;;;;;15.77;82.53;102490.66;5013374;28;20470;-72
2021/07/19 05:27:11;;;;;;;10.35;6.88;;;;;;;15.88;82.50;102487.06;5014398;28;20038;-71
2021/07/19 05:29:38;;;;;;;12.80;7.57;;;;;;;15.89;83.23;102478.03;5014552;28;20038;-71
2021/07/19 05:32:08;;;;;;;9.90;6.45;;;;;;;15.85;81.22;102485.50;5014804;28;20026;-71
2021/07/19 05:34:34;;;;;;;14.27;6.50;;;;;;;15.81;81.74;102486.75;5012459;28;20124;-73
2021/07/19 05:37:00;;;;;;;12.57;7.25;;;;;;;15.74;81.85;102488.25;5014057;28;20122;-70
2021/07/19 05:39:25;;;;;;;14.38;7.55;;;;;;;15.64;81.54;102485.50;5013779;28;20042;-71
2021/07/19 05:41:51;;;;;;;15.88;8.00;;;;;;;15.63;82.86;102491.00;5013074;28;20117;-72
2021/07/19 05:44:16;;;;;;;15.00;7.25;;;;;;;15.63;82.77;102486.50;5013540;28;20112;-73
2021/07/19 05:46:42;;;;;;;15.80;8.00;;;;;;;15.69;82.99;102487.81;5014200;28;20129;-71
2021/07/19 05:49:07;;;;;;;12.10;8.00;;;;;;;15.74;82.82;102485.56;5013850;28;20489;-70
2021/07/19 05:51:33;;;;;;;13.43;8.00;;;;;;;15.81;82.52;102486.75;5013554;28;20034;-69
2021/07/19 05:54:01;;;;;;;11.95;7.60;;;;;;;15.91;82.51;102488.63;5013875;28;20038;-70
2021/07/19 05:56:27;;;;;;;14.68;8.32;;;;;;;16.02;82.68;102484.03;5013416;28;20053;-70
2021/07/19 05:58:52;;;;;;;14.73;8.10;;;;;;;16.16;81.93;102485.47;5013780;28;20048;-70
2021/07/19 06:01:17;;;;;;;13.25;8.20;;;;;;;16.30;81.82;102483.41;5013161;28;20058;-71
2021/07/19 06:03:43;;;;;;;15.15;8.23;;;;;;;16.36;80.51;102478.34;5012318;28;20428;-70
2021/07/19 06:06:09;;;;;;;11.43;7.20;;;;;;;16.44;80.75;102485.72;5014103;28;20465;-70
2021/07/19 06:08:34;;;;;;;15.65;7.63;;;;;;;16.49;78.90;102486.13;5013074;28;20474;-70
2021/07/19 06:11:00;;;;;;;14.27;7.03;;;;;;;16.47;79.54;102482.75;5012545;28;20069;-70
2021/07/19 06:13:25;;;;;;;13.85;7.43;;;;;;;16.43;78.90;102494.75;5013074;28;20501;-71
2021/07/19 06:15:50;;;;;;;14.30;6.88;;;;;;;16.39;78.94;102501.38;5013644;28;20037;-70
2021/07/19 06:18:16;;;;;;;13.15;6.82;;;;;;;16.34;78.72;102499.09;5013234;28;20040;-70
2021/07/19 06:20:42;;;;;;;18.75;7.13;;;;;;;16.35;79.77;102499.97;5012736;28;20038;-71
2021/07/19 06:23:07;;;;;;;14.55;7.70;;;;;;;16.38;78.49;102505.06;5012349;28;20034;-70
2021/07/19 06:25:35;;;;;;;14.32;6.90;;;;;;;16.40;79.13;102500.41;5012531;28;20058;-71
2021/07/19 06:28:03;;;;;;;10.88;7.18;;;;;;;16.40;79.65;102503.94;5013179;28;20397;-71
2021/07/19 06:30:29;;;;;;;11.85;7.03;;;;;;;16.43;79.96;102502.81;5012664;28;20037;-70
2021/07/19 06:32:55;;;;;;;14.50;7.25;;;;;;;16.48;77.81;102502.41;5013057;28;20088;-71
2021/07/19 06:35:21;;;;;;;9.80;6.28;;;;;;;16.50;79.19;102506.66;5012892;28;20041;-70
2021/07/19 06:37:46;;;;;;;13.95;7.20;;;;;;;16.54;77.95;102504.53;5013354;28;20497;-70
2021/07/19 06:40:12;;;;;;;12.13;7.15;;;;;;;16.53;79.38;102505.53;5013333;28;20029;-70
2021/07/19 06:42:38;;;;;;;14.55;7.43;;;;;;;16.45;77.85;102502.69;5012901;28;20034;-81
2021/07/19 06:45:09;;;;;;;11.70;7.20;;;;;;;16.45;79.93;102500.00;5013961;28;20034;-82
2021/07/19 06:47:34;;;;;;;14.07;7.05;;;;;;;16.50;78.39;102516.56;5012940;28;20037;-81
2021/07/19 06:50:00;;;;;;;15.02;7.13;;;;;;;16.47;78.59;102516.84;5016026;28;20034;-75
2021/07/19 06:52:26;;;;;;;12.88;6.97;;;;;;;16.42;77.80;102519.06;5016146;28;20459;-78
2021/07/19 06:54:52;;;;;;;12.35;7.00;;;;;;;16.45;79.66;102521.47;5017051;28;20394;-79
2021/07/19 06:57:18;;;;;;;10.32;6.82;;;;;;;16.47;79.79;102522.22;5014939;28;20061;-79
2021/07/19 06:59:44;;;;;;;13.55;7.45;;;;;;;16.54;78.55;102518.84;5012936;28;20369;-81
2021/07/19 07:02:09;;;;;;;12.43;6.95;;;;;;;16.63;78.52;102522.53;5011725;28;20500;-81
2021/07/19 07:04:34;;;;;;;14.48;8.10;;;;;;;16.69;78.81;102521.97;5012361;28;20046;-80
2021/07/19 07:07:01;;;;;;;14.85;7.68;;;;;;;16.75;78.61;102517.91;5013468;28;20034;-78
2021/07/19 07:09:27;;;;;;;11.82;7.05;;;;;;;16.78;77.89;102517.63;5012038;28;20375;-78
2021/07/19 07:11:52;;;;;;;13.48;6.95;;;;;;;16.85;78.92;102520.56;5012657;28;20041;-79
2021/07/19 07:14:17;;;;;;;9.23;6.63;;;;;;;16.95;77.77;102518.78;5012491;28;20117;-79
2021/07/19 07:16:43;;;;;;;15.50;7.15;;;;;;;17.11;76.46;102523.63;5011865;28;20030;-80
2021/07/19 07:19:09;;;;;;;11.35;7.40;;;;;;;17.31;75.65;102521.75;5012381;28;20038;-74
2021/07/19 07:21:34;;;;;;;13.93;7.88;;;;;;;17.55;76.49;102518.59;5012050;28;20037;-79
2021/07/19 07:23:59;;;;;;;10.68;6.93;;;;;;;17.80;75.08;102510.91;5012586;28;20528;-78
2021/07/19 07:26:26;;;;;;;11.45;7.32;;;;;;;18.02;74.03;102511.56;5012484;28;20125;-79
2021/07/19 07:28:52;;;;;;;13.55;6.45;;;;;;;18.10;72.51;102514.38;5011803;28;20049;-80
2021/07/19 07:31:18;;;;;;;10.60;6.30;;;;;;;18.18;72.96;102502.84;5012316;28;20496;-81
2021/07/19 07:33:43;;;;;;;11.85;6.03;;;;;;;18.29;71.60;102508.91;5011933;28;20034;-83
2021/07/19 07:36:09;;;;;;;10.75;6.00;;;;;;;18.35;70.56;102512.84;5011237;28;20029;-82
2021/07/19 07:38:35;;;;;;;12.10;6.03;;;;;;;18.33;70.45;102514.81;5014675;28;20033;-76
2021/07/19 07:41:00;;;;;;;9.85;5.82;;;;;;;18.23;69.68;102520.28;5015384;28;20034;-80
2021/07/19 07:43:26;;;;;;;10.82;5.43;;;;;;;18.31;71.14;102512.28;5016391;28;20492;-76
2021/07/19 07:45:52;;;;;;;13.02;6.10;;;;;;;18.45;69.38;102510.09;5015571;28;20034;-77
2021/07/19 07:48:18;;;;;;;11.38;5.95;;;;;;;18.56;67.66;102511.75;5016453;28;20109;-75
2021/07/19 07:50:44;;;;;;;11.27;5.78;;;;;;;18.74;67.57;102514.47;5015442;28;20454;-77
2021/07/19 07:53:10;;;;;;;10.18;5.25;;;;;;;18.91;64.49;102515.50;5016531;28;20045;-80
2021/07/19 07:55:35;;;;;;;11.45;5.20;;;;;;;19.12;67.02;102520.59;5014263;28;20060;-81
2021/07/19 07:58:01;;;;;;;10.48;5.00;;;;;;;19.33;64.63;102510.31;5014792;28;20390;-79
2021/07/19 08:00:27;;;;;;;12.18;5.47;;;;;;;19.51;63.99;102515.69;5015992;28;20037;-78
2021/07/19 08:02:52;;;;;;;9.25;5.40;;;;;;;19.52;62.52;102513.81;5015191;28;20465;-79
2021/07/19 08:05:17;;;;;;;9.10;5.07;;;;;;;19.56;63.66;102512.50;5016103;28;20038;-78
2021/07/19 08:07:43;;;;;;;9.77;5.25;;;;;;;19.50;62.85;102515.84;5015590;28;20042;-81
2021/07/19 08:10:10;;;;;;;9.07;5.30;;;;;;;19.40;62.93;102509.69;5016308;28;20030;-80
2021/07/19 08:12:35;;;;;;;8.75;4.53;;;;;;;19.46;64.62;102525.25;5015591;28;20033;-81
2021/07/19 08:15:03;;;;;;;7.00;4.80;;;;;;;19.41;61.68;102524.84;5016171;28;20048;-83
2021/07/19 08:17:30;;;;;;;8.55;4.95;;;;;;;19.29;63.52;102525.13;5016121;28;20037;-83
2021/07/19 08:19:57;;;;;;;9.57;4.95;;;;;;;19.24;64.68;102521.19;5015360;28;20488;-84
2021/07/19 08:22:24;;;;;;;7.05;4.63;;;;;;;19.30;64.85;102518.72;5015949;28;20072;-82
2021/07/19 08:24:49;;;;;;;9.18;4.60;;;;;;;19.51;63.82;102515.69;5015183;28;20029;-81
2021/07/19 08:27:15;;;;;;;7.20;4.45;;;;;;;19.79;61.21;102512.00;5015686;28;20108;-79
2021/07/19 08:29:40;;;;;;;9.27;4.03;;;;;;;20.00;59.54;102509.75;5014944;28;20109;-79
2021/07/19 08:32:07;;;;;;;8.43;3.78;;;;;;;20.13;60.55;102509.31;5014718;28;20042;-82
2021/07/19 08:34:33;;;;;;;5.65;4.13;;;;;;;20.31;59.62;102506.50;5015007;28;20033;-82
2021/07/19 08:36:59;;;;;;;5.68;4.05;;;;;;;20.44;60.43;102508.78;5015247;28;20038;-85
2021/07/19 08:39:24;;;;;;;8.05;4.20;;;;;;;20.39;59.87;102508.41;5016741;28;20489;-83
2021/07/19 08:41:50;;;;;;;7.90;4.15;;;;;;;20.52;60.43;102521.47;5014729;28;20030;-80
2021/07/19 08:44:16;;;;;;;7.50;4.20;;;;;;;20.53;58.28;102523.16;5014585;28;20045;-77
2021/07/19 08:46:41;;;;;;;7.68;4.25;;;;;;;20.73;57.98;102521.88;5014757;28;20091;-76
2021/07/19 08:49:08;;;;;;;6.63;4.20;;;;;;;20.81;56.98;102509.38;5015385;28;20037;-77
2021/07/19 08:51:37;;;;;;;8.73;4.05;;;;;;;21.10;56.37;102517.03;5014067;28;20045;-77
2021/07/19 08:54:03;;;;;;;8.07;4.15;;;;;;;21.41;56.37;102511.78;5015264;28;20471;-75
2021/07/19 08:56:29;;;;;;;5.90;4.28;;;;;;;21.95;56.02;102510.34;5014997;28;20041;-78
2021/07/19 08:58:55;;;;;;;8.15;4.75;;;;;;;22.69;51.88;102507.31;5014228;28;20438;-79
2021/07/19 09:01:20;;;;;;;7.70;4.35;;;;;;;23.14;52.20;102505.66;5014907;28;20077;-78
2021/07/19 09:03:47;;;;;;;11.45;4.60;;;;;;;23.89;50.35;102509.34;5014442;28;20394;-80
2021/07/19 09:06:13;;;;;;;7.82;4.30;;;;;;;24.41;47.05;102512.13;5015019;28;20061;-81
2021/07/19 09:08:48;;;;;;;6.50;4.30;;;;;;;25.29;45.21;102512.81;5014984;28;20033;-78
2021/07/19 09:11:14;;;;;;;10.38;4.68;;;;;;;25.93;44.36;102505.53;5014841;28;20121;-77
2021/07/19 09:13:54;;;;;;;8.02;5.35;;;;;;;26.38;42.46;102503.22;5013346;28;20116;-84
2021/07/19 09:16:20;;;;;;;;;;;;;;;25.84;44.10;102504.00;5015332;28;20036;-77
2021/07/19 09:18:45;;;;;;;9.63;4.50;;;;;;;24.85;47.70;102494.00;5013987;28;20285;-76
2021/07/19 09:21:29;;;;;;;8.23;4.57;;;;;;;24.25;48.77;102500.41;5014607;28;20064;-85
2021/07/19 09:24:12;;;;;;;7.28;4.72;;;;;;;23.51;50.41;102500.41;5014055;28;20030;-87
2021/07/19 09:26:41;;;;;;;8.05;5.00;;;;;;;23.12;53.26;102498.72;5015074;28;20101;-86
2021/07/19 09:29:09;;;;;;;6.88;4.07;;;;;;;22.93;53.09;102500.88;5014805;28;20034;-83
2021/07/19 09:31:39;;;;;;;10.00;4.30;;;;;;;22.98;53.53;102493.03;5014576;28;20482;-84
2021/07/19 09:34:12;;;;;;;11.93;4.68;;;;;;;22.81;53.52;102492.31;5013865;28;20148;-78
2021/07/19 09:36:37;;;;;;;7.30;4.10;;;;;;;23.12;53.09;102496.00;5013538;28;20042;-80
2021/07/19 09:39:08;;;;;;;6.18;4.60;;;;;;;22.89;50.82;102496.84;5013799;28;20064;-73
2021/07/19 09:41:35;;;;;;;11.65;4.90;;;;;;;22.70;53.37;102493.56;5014422;28;20045;-71
2021/07/19 09:44:06;;;;;;;11.10;4.90;;;;;;;22.46;52.86;102489.13;5013609;28;20033;-72
2021/07/19 09:46:33;;;;;;;8.85;4.70;;;;;;;22.52;54.46;102493.00;5014142;28;20466;-71
2021/07/19 09:48:59;;;;;;;7.70;4.75;;;;;;;22.74;54.30;102491.34;5013420;28;20040;-71
2021/07/19 09:51:29;;;;;;;9.10;4.82;;;;;;;22.99;53.80;102491.16;5014086;28;20034;-72
2021/07/19 09:53:54;;;;;;;9.50;5.30;;;;;;;23.07;51.91;102491.09;5013326;28;20494;-72
2021/07/19 09:56:22;;;;;;;9.18;4.47;;;;;;;23.37;52.25;102485.78;5014096;28;20040;-72
2021/07/19 09:59:03;;;;;;;12.52;5.57;;;;;;;23.13;52.10;102487.69;5012950;28;20048;-70
2021/07/19 10:01:29;;;;;;;8.05;5.05;;;;;;;22.65;54.29;102484.28;5013485;28;20066;-70
2021/07/19 10:04:17;;;;;;;11.77;5.75;;;;;;;22.43;54.79;102481.34;5013394;28;20077;-70
2021/07/19 10:06:45;;;;;;;9.80;4.95;;;;;;;22.62;54.26;102488.19;5013763;28;20080;-70
2021/07/19 10:09:13;;;;;;;7.68;4.55;;;;;;;23.51;53.12;102475.94;5013613;28;20084;-70
2021/07/19 10:11:42;;;;;;;8.10;4.82;;;;;;;24.95;48.08;102478.19;5012281;28;20041;-70
2021/07/19 10:14:08;;;;;;;10.90;6.05;;;;;;;25.72;44.39;102471.00;5013088;28;20033;-70
2021/07/19 10:16:35;;;;;;;8.18;5.18;;;;;;;26.47;42.38;102468.41;5013778;28;20029;-70
2021/07/19 10:19:02;;;;;;;10.27;5.05;;;;;;;27.38;42.10;102472.50;5012910;28;20048;-71
2021/07/19 10:21:31;;;;;;;14.32;5.45;;;;;;;28.26;40.37;102468.47;5013735;28;20104;-70
2021/07/19 10:24:01;;;;;;;7.45;5.05;;;;;;;27.46;39.61;102470.63;5012818;28;20038;-70
2021/07/19 10:26:28;;;;;;;;;;;;;;;26.50;41.16;102467.13;5013678;28;20429;-70
2021/07/19 10:28:53;;;;;;;9.02;4.90;;;;;;;26.62;41.54;102456.47;5012967;28;19917;-71
2021/07/19 10:31:20;;;;;;;11.77;4.63;;;;;;;26.64;40.34;102463.41;5015003;28;20037;-76
2021/07/19 10:33:48;;;;;;;8.98;4.75;;;;;;;27.74;40.49;102467.59;5013582;28;20474;-77
2021/07/19 10:36:21;;;;;;;11.93;5.25;;;;;;;28.55;38.16;102459.88;5013057;28;20037;-77
2021/07/19 10:38:47;;;;;;;8.07;4.90;;;;;;;28.55;38.79;102457.97;5013166;28;20056;-78
2021/07/19 10:41:13;;;;;;;8.00;4.43;;;;;;;28.41;38.20;102462.69;5012542;28;20034;-78
2021/07/19 10:43:39;;;;;;;9.18;4.75;;;;;;;27.70;38.02;102463.63;5013238;28;20519;-78
2021/07/19 10:46:10;;;;;;;8.93;4.22;;;;;;;27.04;41.71;102460.72;5012606;28;20430;-74
2021/07/19 10:48:36;;;;;;;7.93;4.20;;;;;;;26.46;42.67;102464.00;5013143;28;20112;-76
2021/07/19 10:51:21;;;;;;;8.98;4.57;;;;;;;25.89;44.77;102460.63;5012606;28;20041;-76
2021/07/19 10:53:47;;;;;;;8.73;4.18;;;;;;;25.87;44.84;102451.78;5013093;28;20030;-77
2021/07/19 10:56:14;;;;;;;7.90;4.70;;;;;;;25.72;44.84;102448.38;5012498;28;20041;-77
2021/07/19 10:58:48;;;;;;;6.95;4.32;;;;;;;25.54;45.88;102444.28;5013021;28;20026;-77
2021/07/19 11:01:25;;;;;;;8.05;4.43;;;;;;;25.85;45.65;102443.81;5012278;28;20099;-77
2021/07/19 11:03:52;;;;;;;10.18;4.32;;;;;;;25.89;43.25;102438.81;5012775;28;20112;-77
2021/07/19 11:06:31;;;;;;;9.68;4.72;;;;;;;26.04;44.22;102442.25;5012009;28;20038;-76
2021/07/19 11:08:57;;;;;;;10.00;4.60;;;;;;;26.08;44.81;102442.72;5012728;28;20041;-76
2021/07/19 11:11:27;;;;;;;11.20;4.30;;;;;;;25.67;45.45;102438.91;5012447;28;20038;-76
2021/07/19 11:14:04;;;;;;;8.63;4.82;;;;;;;25.08;45.34;102442.03;5012955;28;20041;-76
2021/07/19 11:17:07;;;;;;;7.65;4.13;;;;;;;24.69;46.92;102437.94;5012642;28;20045;-76
2021/07/19 11:19:39;;;;;;;8.90;4.55;;;;;;;24.53;46.30;102433.56;5018214;28;20042;-76
2021/07/19 11:22:12;;;;;;;7.45;4.40;;;;;;;24.63;47.97;102431.38;5011147;28;20088;-77